sensor_id;sensor_type;location;lat;lon;timestamp;P1;durP1;ratioP1;P2;durP2;ratioP2
14665;SDS011;7420;53.574;10.040;2023-01-28T00:02:05;16.08;;;9.15;;
14665;SDS011;7420;53.574;10.040;2023-01-28T00:04:30;12.82;;;6.85;;
14665;SDS011;7420;53.574;10.040;2023-01-28T00:06:56;17.42;;;8.48;;
14665;SDS011;7420;53.574;10.040;2023-01-28T00:09:21;61.78;;;26.73;;
14665;SDS011;7420;53.574;10.040;2023-01-28T00:11:46;52.13;;;20.45;;
14665;SDS011;7420;53.574;10.040;2023-01-28T00:14:12;15.88;;;6.80;;
14665;SDS011;7420;53.574;10.040;2023-01-28T00:16:37;4.63;;;3.38;;
14665;SDS011;7420;53.574;10.040;2023-01-28T00:19:03;4.45;;;2.20;;
14665;SDS011;7420;53.574;10.040;2023-01-28T00:21:28;3.75;;;2.40;;
14665;SDS011;7420;53.574;10.040;2023-01-28T00:23:54;4.32;;;2.13;;
14665;SDS011;7420;53.574;10.040;2023-01-28T00:26:21;4.20;;;3.10;;
14665;SDS011;7420;53.574;10.040;2023-01-28T00:28:47;6.30;;;2.20;;
14665;SDS011;7420;53.574;10.040;2023-01-28T00:31:23;2.55;;;2.22;;
14665;SDS011;7420;53.574;10.040;2023-01-28T00:33:51;3.17;;;2.10;;
14665;SDS011;7420;53.574;10.040;2023-01-28T00:36:18;4.10;;;2.20;;
14665;SDS011;7420;53.574;10.040;2023-01-28T00:38:52;5.90;;;2.72;;
14665;SDS011;7420;53.574;10.040;2023-01-28T00:41:22;4.45;;;2.75;;
14665;SDS011;7420;53.574;10.040;2023-01-28T00:43:50;2.78;;;2.03;;
14665;SDS011;7420;53.574;10.040;2023-01-28T00:46:17;3.67;;;2.10;;
14665;SDS011;7420;53.574;10.040;2023-01-28T00:48:43;2.30;;;1.90;;
14665;SDS011;7420;53.574;10.040;2023-01-28T00:51:10;4.35;;;2.60;;
14665;SDS011;7420;53.574;10.040;2023-01-28T00:53:36;2.83;;;2.42;;
14665;SDS011;7420;53.574;10.040;2023-01-28T00:56:03;2.85;;;2.30;;
14665;SDS011;7420;53.574;10.040;2023-01-28T00:58:30;5.22;;;2.40;;
14665;SDS011;7420;53.574;10.040;2023-01-28T01:00:55;5.63;;;2.95;;
14665;SDS011;7420;53.574;10.040;2023-01-28T01:03:21;4.95;;;2.42;;
14665;SDS011;7420;53.574;10.040;2023-01-28T01:05:46;2.45;;;1.90;;
14665;SDS011;7420;53.574;10.040;2023-01-28T01:08:12;2.72;;;2.00;;
14665;SDS011;7420;53.574;10.040;2023-01-28T01:10:37;3.67;;;2.42;;
14665;SDS011;7420;53.574;10.040;2023-01-28T01:13:23;4.00;;;2.33;;
14665;SDS011;7420;53.574;10.040;2023-01-28T01:15:48;2.00;;;1.65;;
14665;SDS011;7420;53.574;10.040;2023-01-28T01:18:14;2.47;;;1.83;;
14665;SDS011;7420;53.574;10.040;2023-01-28T01:20:40;3.97;;;1.98;;
14665;SDS011;7420;53.574;10.040;2023-01-28T01:23:09;2.40;;;2.10;;
14665;SDS011;7420;53.574;10.040;2023-01-28T01:25:34;4.03;;;2.42;;
14665;SDS011;7420;53.574;10.040;2023-01-28T01:28:00;4.38;;;2.40;;
14665;SDS011;7420;53.574;10.040;2023-01-28T01:30:25;4.68;;;3.13;;
14665;SDS011;7420;53.574;10.040;2023-01-28T01:32:51;3.45;;;2.20;;
14665;SDS011;7420;53.574;10.040;2023-01-28T01:35:16;2.53;;;2.33;;
14665;SDS011;7420;53.574;10.040;2023-01-28T01:37:42;2.97;;;2.38;;
14665;SDS011;7420;53.574;10.040;2023-01-28T01:40:09;3.10;;;2.13;;
14665;SDS011;7420;53.574;10.040;2023-01-28T01:42:35;2.92;;;2.17;;
14665;SDS011;7420;53.574;10.040;2023-01-28T01:49:56;2.83;;;2.60;;
14665;SDS011;7420;53.574;10.040;2023-01-28T01:52:27;2.65;;;2.42;;
14665;SDS011;7420;53.574;10.040;2023-01-28T01:54:57;5.72;;;2.42;;
14665;SDS011;7420;53.574;10.040;2023-01-28T01:57:27;2.63;;;2.17;;
14665;SDS011;7420;53.574;10.040;2023-01-28T01:59:55;3.65;;;2.30;;
14665;SDS011;7420;53.574;10.040;2023-01-28T02:02:29;4.50;;;2.60;;
14665;SDS011;7420;53.574;10.040;2023-01-28T02:04:54;2.78;;;2.15;;
14665;SDS011;7420;53.574;10.040;2023-01-28T02:07:20;3.13;;;2.30;;
14665;SDS011;7420;53.574;10.040;2023-01-28T02:09:45;3.13;;;2.10;;
14665;SDS011;7420;53.574;10.040;2023-01-28T02:12:11;3.60;;;2.28;;
14665;SDS011;7420;53.574;10.040;2023-01-28T02:14:43;4.47;;;2.30;;
14665;SDS011;7420;53.574;10.040;2023-01-28T02:17:12;4.32;;;2.70;;
14665;SDS011;7420;53.574;10.040;2023-01-28T02:19:49;3.38;;;2.70;;
14665;SDS011;7420;53.574;10.040;2023-01-28T02:27:51;2.97;;;2.53;;
14665;SDS011;7420;53.574;10.040;2023-01-28T02:30:30;5.38;;;3.13;;
14665;SDS011;7420;53.574;10.040;2023-01-28T02:33:12;3.83;;;2.80;;
14665;SDS011;7420;53.574;10.040;2023-01-28T02:38:08;3.75;;;2.80;;
14665;SDS011;7420;53.574;10.040;2023-01-28T02:40:41;2.97;;;2.78;;
14665;SDS011;7420;53.574;10.040;2023-01-28T02:45:56;2.97;;;2.55;;
14665;SDS011;7420;53.574;10.040;2023-01-28T02:48:41;5.03;;;2.70;;
14665;SDS011;7420;53.574;10.040;2023-01-28T02:51:09;2.50;;;2.30;;
14665;SDS011;7420;53.574;10.040;2023-01-28T02:53:50;2.78;;;2.50;;
14665;SDS011;7420;53.574;10.040;2023-01-28T02:56:40;3.45;;;2.45;;
14665;SDS011;7420;53.574;10.040;2023-01-28T03:02:19;4.20;;;2.42;;
14665;SDS011;7420;53.574;10.040;2023-01-28T03:05:02;3.20;;;2.90;;
14665;SDS011;7420;53.574;10.040;2023-01-28T03:07:44;2.72;;;2.53;;
14665;SDS011;7420;53.574;10.040;2023-01-28T03:10:11;4.40;;;2.50;;
14665;SDS011;7420;53.574;10.040;2023-01-28T03:12:41;3.08;;;2.20;;
14665;SDS011;7420;53.574;10.040;2023-01-28T03:15:31;3.08;;;2.47;;
14665;SDS011;7420;53.574;10.040;2023-01-28T03:18:43;5.50;;;2.60;;
14665;SDS011;7420;53.574;10.040;2023-01-28T03:21:33;4.25;;;2.53;;
14665;SDS011;7420;53.574;10.040;2023-01-28T03:31:17;3.47;;;2.65;;
14665;SDS011;7420;53.574;10.040;2023-01-28T03:33:47;4.40;;;2.47;;
14665;SDS011;7420;53.574;10.040;2023-01-28T03:36:33;2.90;;;2.47;;
14665;SDS011;7420;53.574;10.040;2023-01-28T03:39:18;2.97;;;2.35;;
14665;SDS011;7420;53.574;10.040;2023-01-28T03:42:03;3.65;;;2.28;;
14665;SDS011;7420;53.574;10.040;2023-01-28T03:47:14;2.53;;;2.33;;
14665;SDS011;7420;53.574;10.040;2023-01-28T03:49:44;2.45;;;2.25;;
14665;SDS011;7420;53.574;10.040;2023-01-28T03:52:13;2.85;;;2.55;;
14665;SDS011;7420;53.574;10.040;2023-01-28T03:54:39;7.28;;;2.65;;
14665;SDS011;7420;53.574;10.040;2023-01-28T03:57:05;2.33;;;2.13;;
14665;SDS011;7420;53.574;10.040;2023-01-28T03:59:30;2.58;;;2.38;;
14665;SDS011;7420;53.574;10.040;2023-01-28T04:01:56;4.60;;;2.45;;
14665;SDS011;7420;53.574;10.040;2023-01-28T04:04:22;3.22;;;2.50;;
14665;SDS011;7420;53.574;10.040;2023-01-28T04:06:52;2.65;;;2.22;;
14665;SDS011;7420;53.574;10.040;2023-01-28T04:09:21;3.65;;;2.67;;
14665;SDS011;7420;53.574;10.040;2023-01-28T04:11:47;4.68;;;2.50;;
14665;SDS011;7420;53.574;10.040;2023-01-28T04:14:14;3.85;;;2.63;;
14665;SDS011;7420;53.574;10.040;2023-01-28T04:16:40;3.83;;;3.17;;
14665;SDS011;7420;53.574;10.040;2023-01-28T04:19:06;3.97;;;3.17;;
14665;SDS011;7420;53.574;10.040;2023-01-28T04:21:34;3.60;;;3.03;;
14665;SDS011;7420;53.574;10.040;2023-01-28T04:24:00;3.88;;;3.42;;
14665;SDS011;7420;53.574;10.040;2023-01-28T04:26:26;5.70;;;3.60;;
14665;SDS011;7420;53.574;10.040;2023-01-28T04:28:51;4.03;;;3.35;;
14665;SDS011;7420;53.574;10.040;2023-01-28T04:31:17;5.88;;;3.50;;
14665;SDS011;7420;53.574;10.040;2023-01-28T04:33:42;7.85;;;3.75;;
14665;SDS011;7420;53.574;10.040;2023-01-28T04:36:08;6.80;;;3.33;;
14665;SDS011;7420;53.574;10.040;2023-01-28T04:38:33;7.80;;;3.83;;
14665;SDS011;7420;53.574;10.040;2023-01-28T04:40:59;6.07;;;3.75;;
14665;SDS011;7420;53.574;10.040;2023-01-28T04:43:24;6.22;;;4.75;;
14665;SDS011;7420;53.574;10.040;2023-01-28T04:45:49;5.85;;;4.20;;
14665;SDS011;7420;53.574;10.040;2023-01-28T04:48:15;5.43;;;4.13;;
14665;SDS011;7420;53.574;10.040;2023-01-28T04:50:41;5.40;;;4.18;;
14665;SDS011;7420;53.574;10.040;2023-01-28T04:53:07;7.50;;;3.92;;
14665;SDS011;7420;53.574;10.040;2023-01-28T04:55:32;6.30;;;3.95;;
14665;SDS011;7420;53.574;10.040;2023-01-28T04:57:57;5.18;;;4.00;;
14665;SDS011;7420;53.574;10.040;2023-01-28T05:00:23;5.53;;;4.13;;
14665;SDS011;7420;53.574;10.040;2023-01-28T05:02:48;4.78;;;3.75;;
14665;SDS011;7420;53.574;10.040;2023-01-28T05:05:14;6.40;;;4.13;;
14665;SDS011;7420;53.574;10.040;2023-01-28T05:07:39;5.65;;;4.03;;
14665;SDS011;7420;53.574;10.040;2023-01-28T05:10:04;4.47;;;3.22;;
14665;SDS011;7420;53.574;10.040;2023-01-28T05:12:30;4.45;;;3.67;;
14665;SDS011;7420;53.574;10.040;2023-01-28T05:14:58;5.10;;;4.32;;
14665;SDS011;7420;53.574;10.040;2023-01-28T05:17:26;6.68;;;4.75;;
14665;SDS011;7420;53.574;10.040;2023-01-28T05:19:52;5.03;;;3.85;;
14665;SDS011;7420;53.574;10.040;2023-01-28T05:22:18;4.10;;;3.67;;
14665;SDS011;7420;53.574;10.040;2023-01-28T05:24:43;7.05;;;4.68;;
14665;SDS011;7420;53.574;10.040;2023-01-28T05:27:08;4.10;;;3.70;;
14665;SDS011;7420;53.574;10.040;2023-01-28T05:29:34;7.85;;;4.60;;
14665;SDS011;7420;53.574;10.040;2023-01-28T05:31:59;8.98;;;5.57;;
14665;SDS011;7420;53.574;10.040;2023-01-28T05:34:24;7.80;;;4.30;;
14665;SDS011;7420;53.574;10.040;2023-01-28T05:36:50;5.75;;;3.97;;
14665;SDS011;7420;53.574;10.040;2023-01-28T05:39:15;4.93;;;4.05;;
14665;SDS011;7420;53.574;10.040;2023-01-28T05:41:40;6.80;;;4.68;;
14665;SDS011;7420;53.574;10.040;2023-01-28T05:44:06;4.68;;;4.18;;
14665;SDS011;7420;53.574;10.040;2023-01-28T05:46:31;5.18;;;4.50;;
14665;SDS011;7420;53.574;10.040;2023-01-28T05:48:56;6.10;;;4.80;;
14665;SDS011;7420;53.574;10.040;2023-01-28T05:51:22;5.25;;;4.28;;
14665;SDS011;7420;53.574;10.040;2023-01-28T05:53:47;7.45;;;5.03;;
14665;SDS011;7420;53.574;10.040;2023-01-28T05:56:12;5.78;;;4.85;;
14665;SDS011;7420;53.574;10.040;2023-01-28T05:58:38;5.88;;;4.80;;
14665;SDS011;7420;53.574;10.040;2023-01-28T06:01:03;7.22;;;5.10;;
14665;SDS011;7420;53.574;10.040;2023-01-28T06:03:29;11.40;;;5.18;;
14665;SDS011;7420;53.574;10.040;2023-01-28T06:05:54;7.65;;;5.05;;
14665;SDS011;7420;53.574;10.040;2023-01-28T06:08:19;8.15;;;5.70;;
14665;SDS011;7420;53.574;10.040;2023-01-28T06:10:45;7.43;;;5.20;;
14665;SDS011;7420;53.574;10.040;2023-01-28T06:13:10;7.45;;;5.00;;
14665;SDS011;7420;53.574;10.040;2023-01-28T06:15:36;8.77;;;5.63;;
14665;SDS011;7420;53.574;10.040;2023-01-28T06:18:01;8.10;;;5.97;;
14665;SDS011;7420;53.574;10.040;2023-01-28T06:20:26;9.25;;;6.40;;
14665;SDS011;7420;53.574;10.040;2023-01-28T06:22:52;10.38;;;6.45;;
14665;SDS011;7420;53.574;10.040;2023-01-28T06:25:18;9.02;;;6.20;;
14665;SDS011;7420;53.574;10.040;2023-01-28T06:27:43;7.53;;;5.82;;
14665;SDS011;7420;53.574;10.040;2023-01-28T06:30:09;11.73;;;6.30;;
14665;SDS011;7420;53.574;10.040;2023-01-28T06:32:35;7.38;;;5.90;;
14665;SDS011;7420;53.574;10.040;2023-01-28T06:35:00;6.75;;;6.10;;
14665;SDS011;7420;53.574;10.040;2023-01-28T06:37:25;8.63;;;6.55;;
14665;SDS011;7420;53.574;10.040;2023-01-28T06:39:51;7.55;;;6.28;;
14665;SDS011;7420;53.574;10.040;2023-01-28T06:42:16;8.65;;;6.68;;
14665;SDS011;7420;53.574;10.040;2023-01-28T06:44:42;9.77;;;6.88;;
14665;SDS011;7420;53.574;10.040;2023-01-28T06:47:07;11.38;;;7.18;;
14665;SDS011;7420;53.574;10.040;2023-01-28T06:49:34;7.78;;;6.95;;
14665;SDS011;7420;53.574;10.040;2023-01-28T06:52:00;9.25;;;6.82;;
14665;SDS011;7420;53.574;10.040;2023-01-28T06:54:26;8.73;;;7.25;;
14665;SDS011;7420;53.574;10.040;2023-01-28T06:56:51;11.25;;;6.65;;
14665;SDS011;7420;53.574;10.040;2023-01-28T06:59:16;13.25;;;7.72;;
14665;SDS011;7420;53.574;10.040;2023-01-28T07:01:42;8.77;;;7.35;;
14665;SDS011;7420;53.574;10.040;2023-01-28T07:04:07;12.40;;;9.45;;
14665;SDS011;7420;53.574;10.040;2023-01-28T07:06:32;10.98;;;7.38;;
14665;SDS011;7420;53.574;10.040;2023-01-28T07:08:58;11.13;;;8.05;;
14665;SDS011;7420;53.574;10.040;2023-01-28T07:11:23;9.43;;;8.27;;
14665;SDS011;7420;53.574;10.040;2023-01-28T07:13:49;12.57;;;7.85;;
14665;SDS011;7420;53.574;10.040;2023-01-28T07:16:14;13.27;;;8.35;;
14665;SDS011;7420;53.574;10.040;2023-01-28T07:18:40;11.90;;;8.32;;
14665;SDS011;7420;53.574;10.040;2023-01-28T07:21:05;13.82;;;9.43;;
14665;SDS011;7420;53.574;10.040;2023-01-28T07:23:31;10.63;;;8.23;;
14665;SDS011;7420;53.574;10.040;2023-01-28T07:25:59;10.07;;;8.70;;
14665;SDS011;7420;53.574;10.040;2023-01-28T07:28:28;18.73;;;9.25;;
14665;SDS011;7420;53.574;10.040;2023-01-28T07:30:54;10.00;;;8.70;;
14665;SDS011;7420;53.574;10.040;2023-01-28T07:33:19;13.35;;;9.15;;
14665;SDS011;7420;53.574;10.040;2023-01-28T07:35:45;9.57;;;8.55;;
14665;SDS011;7420;53.574;10.040;2023-01-28T07:38:11;9.82;;;8.82;;
14665;SDS011;7420;53.574;10.040;2023-01-28T07:40:36;11.73;;;9.52;;
14665;SDS011;7420;53.574;10.040;2023-01-28T07:43:02;10.15;;;9.18;;
14665;SDS011;7420;53.574;10.040;2023-01-28T07:45:28;11.85;;;9.30;;
14665;SDS011;7420;53.574;10.040;2023-01-28T07:50:27;12.73;;;9.38;;
14665;SDS011;7420;53.574;10.040;2023-01-28T07:52:54;11.63;;;9.77;;
14665;SDS011;7420;53.574;10.040;2023-01-28T07:55:20;11.35;;;9.63;;
14665;SDS011;7420;53.574;10.040;2023-01-28T08:00:15;12.73;;;10.15;;
14665;SDS011;7420;53.574;10.040;2023-01-28T08:02:41;12.45;;;9.95;;
14665;SDS011;7420;53.574;10.040;2023-01-28T08:05:09;13.43;;;10.52;;
14665;SDS011;7420;53.574;10.040;2023-01-28T08:07:34;13.13;;;10.05;;
14665;SDS011;7420;53.574;10.040;2023-01-28T08:09:59;13.40;;;10.20;;
14665;SDS011;7420;53.574;10.040;2023-01-28T08:12:25;14.43;;;9.65;;
14665;SDS011;7420;53.574;10.040;2023-01-28T08:14:50;15.77;;;10.30;;
14665;SDS011;7420;53.574;10.040;2023-01-28T08:17:15;16.73;;;10.13;;
14665;SDS011;7420;53.574;10.040;2023-01-28T08:19:41;18.98;;;10.27;;
14665;SDS011;7420;53.574;10.040;2023-01-28T08:22:06;13.38;;;10.15;;
14665;SDS011;7420;53.574;10.040;2023-01-28T08:24:31;12.27;;;9.35;;
14665;SDS011;7420;53.574;10.040;2023-01-28T08:26:57;13.88;;;10.50;;
14665;SDS011;7420;53.574;10.040;2023-01-28T08:29:22;14.35;;;9.52;;
14665;SDS011;7420;53.574;10.040;2023-01-28T08:31:47;13.90;;;9.98;;
14665;SDS011;7420;53.574;10.040;2023-01-28T08:34:13;12.27;;;9.80;;
14665;SDS011;7420;53.574;10.040;2023-01-28T08:36:38;13.38;;;9.80;;
14665;SDS011;7420;53.574;10.040;2023-01-28T08:39:03;13.18;;;9.77;;
14665;SDS011;7420;53.574;10.040;2023-01-28T08:41:30;13.55;;;10.00;;
14665;SDS011;7420;53.574;10.040;2023-01-28T08:43:55;15.77;;;10.05;;
14665;SDS011;7420;53.574;10.040;2023-01-28T08:46:20;19.60;;;9.98;;
14665;SDS011;7420;53.574;10.040;2023-01-28T08:48:48;14.20;;;10.20;;
14665;SDS011;7420;53.574;10.040;2023-01-28T08:51:14;12.43;;;8.48;;
14665;SDS011;7420;53.574;10.040;2023-01-28T08:53:39;15.35;;;9.40;;
14665;SDS011;7420;53.574;10.040;2023-01-28T08:56:04;14.65;;;10.05;;
14665;SDS011;7420;53.574;10.040;2023-01-28T08:58:30;12.50;;;8.77;;
14665;SDS011;7420;53.574;10.040;2023-01-28T09:00:55;14.13;;;10.50;;
14665;SDS011;7420;53.574;10.040;2023-01-28T09:03:21;13.20;;;9.60;;
14665;SDS011;7420;53.574;10.040;2023-01-28T09:05:46;11.77;;;8.85;;
14665;SDS011;7420;53.574;10.040;2023-01-28T09:08:13;15.07;;;9.23;;
14665;SDS011;7420;53.574;10.040;2023-01-28T09:10:39;11.52;;;9.75;;
14665;SDS011;7420;53.574;10.040;2023-01-28T09:13:06;13.77;;;9.02;;
14665;SDS011;7420;53.574;10.040;2023-01-28T09:15:33;11.18;;;9.70;;
14665;SDS011;7420;53.574;10.040;2023-01-28T09:17:59;13.68;;;10.15;;
14665;SDS011;7420;53.574;10.040;2023-01-28T09:20:25;13.15;;;9.95;;
14665;SDS011;7420;53.574;10.040;2023-01-28T09:22:51;12.52;;;9.32;;
14665;SDS011;7420;53.574;10.040;2023-01-28T09:25:16;12.32;;;8.90;;
14665;SDS011;7420;53.574;10.040;2023-01-28T09:27:41;12.57;;;9.20;;
14665;SDS011;7420;53.574;10.040;2023-01-28T09:30:07;11.38;;;8.98;;
14665;SDS011;7420;53.574;10.040;2023-01-28T09:32:34;10.80;;;9.23;;
14665;SDS011;7420;53.574;10.040;2023-01-28T09:35:00;11.82;;;8.63;;
14665;SDS011;7420;53.574;10.040;2023-01-28T09:37:25;15.73;;;8.90;;
14665;SDS011;7420;53.574;10.040;2023-01-28T09:39:50;12.93;;;9.57;;
14665;SDS011;7420;53.574;10.040;2023-01-28T09:47:55;11.43;;;9.35;;
14665;SDS011;7420;53.574;10.040;2023-01-28T09:50:30;9.82;;;8.00;;
14665;SDS011;7420;53.574;10.040;2023-01-28T09:52:58;12.65;;;8.55;;
14665;SDS011;7420;53.574;10.040;2023-01-28T09:55:30;9.85;;;8.38;;
14665;SDS011;7420;53.574;10.040;2023-01-28T09:57:59;10.60;;;7.93;;
14665;SDS011;7420;53.574;10.040;2023-01-28T10:00:39;10.43;;;8.15;;
14665;SDS011;7420;53.574;10.040;2023-01-28T10:06:05;10.43;;;7.65;;
14665;SDS011;7420;53.574;10.040;2023-01-28T10:11:31;12.40;;;8.27;;
14665;SDS011;7420;53.574;10.040;2023-01-28T10:17:09;12.75;;;7.72;;
14665;SDS011;7420;53.574;10.040;2023-01-28T10:19:45;14.30;;;8.75;;
14665;SDS011;7420;53.574;10.040;2023-01-28T10:22:22;8.85;;;7.95;;
14665;SDS011;7420;53.574;10.040;2023-01-28T10:24:54;8.85;;;7.32;;
14665;SDS011;7420;53.574;10.040;2023-01-28T10:27:31;10.20;;;8.48;;
14665;SDS011;7420;53.574;10.040;2023-01-28T10:29:59;10.10;;;7.20;;
14665;SDS011;7420;53.574;10.040;2023-01-28T10:32:33;9.35;;;7.25;;
14665;SDS011;7420;53.574;10.040;2023-01-28T10:35:02;8.57;;;6.60;;
14665;SDS011;7420;53.574;10.040;2023-01-28T10:37:29;6.82;;;6.13;;
14665;SDS011;7420;53.574;10.040;2023-01-28T10:39:58;8.05;;;7.15;;
14665;SDS011;7420;53.574;10.040;2023-01-28T10:42:29;7.07;;;6.22;;
14665;SDS011;7420;53.574;10.040;2023-01-28T10:45:00;10.80;;;7.30;;
14665;SDS011;7420;53.574;10.040;2023-01-28T10:47:37;11.18;;;7.60;;
14665;SDS011;7420;53.574;10.040;2023-01-28T10:50:05;10.60;;;7.85;;
14665;SDS011;7420;53.574;10.040;2023-01-28T10:52:38;9.00;;;6.75;;
14665;SDS011;7420;53.574;10.040;2023-01-28T10:55:14;8.38;;;7.50;;
14665;SDS011;7420;53.574;10.040;2023-01-28T10:57:40;11.95;;;8.15;;
14665;SDS011;7420;53.574;10.040;2023-01-28T11:00:10;11.23;;;7.40;;
14665;SDS011;7420;53.574;10.040;2023-01-28T11:02:47;11.00;;;7.82;;
14665;SDS011;7420;53.574;10.040;2023-01-28T11:07:46;10.05;;;7.95;;
14665;SDS011;7420;53.574;10.040;2023-01-28T11:10:48;13.85;;;9.70;;
14665;SDS011;7420;53.574;10.040;2023-01-28T11:13:23;14.93;;;9.02;;
14665;SDS011;7420;53.574;10.040;2023-01-28T11:16:33;10.98;;;8.80;;
14665;SDS011;7420;53.574;10.040;2023-01-28T11:18:47;19.00;;;9.75;;
14665;SDS011;7420;53.574;10.040;2023-01-28T11:21:17;11.23;;;8.85;;
14665;SDS011;7420;53.574;10.040;2023-01-28T11:26:28;11.40;;;8.50;;
14665;SDS011;7420;53.574;10.040;2023-01-28T11:28:56;9.68;;;8.02;;
14665;SDS011;7420;53.574;10.040;2023-01-28T11:31:22;10.77;;;8.90;;
14665;SDS011;7420;53.574;10.040;2023-01-28T11:33:49;10.57;;;8.30;;
14665;SDS011;7420;53.574;10.040;2023-01-28T11:36:24;11.60;;;8.25;;
14665;SDS011;7420;53.574;10.040;2023-01-28T11:38:52;10.30;;;8.23;;
14665;SDS011;7420;53.574;10.040;2023-01-28T11:41:23;14.63;;;8.88;;
14665;SDS011;7420;53.574;10.040;2023-01-28T11:43:51;12.93;;;8.32;;
14665;SDS011;7420;53.574;10.040;2023-01-28T11:49:02;12.00;;;8.90;;
14665;SDS011;7420;53.574;10.040;2023-01-28T11:54:36;10.65;;;8.23;;
14665;SDS011;7420;53.574;10.040;2023-01-28T11:59:44;13.70;;;9.73;;
14665;SDS011;7420;53.574;10.040;2023-01-28T12:10:08;14.38;;;8.98;;
14665;SDS011;7420;53.574;10.040;2023-01-28T12:32:11;13.68;;;9.32;;
14665;SDS011;7420;53.574;10.040;2023-01-28T12:42:50;14.02;;;9.57;;
14665;SDS011;7420;53.574;10.040;2023-01-28T12:45:30;11.85;;;8.88;;
14665;SDS011;7420;53.574;10.040;2023-01-28T12:55:47;10.85;;;8.40;;
14665;SDS011;7420;53.574;10.040;2023-01-28T12:58:20;13.30;;;9.27;;
14665;SDS011;7420;53.574;10.040;2023-01-28T13:01:00;11.30;;;8.00;;
14665;SDS011;7420;53.574;10.040;2023-01-28T13:04:05;11.75;;;9.15;;
14665;SDS011;7420;53.574;10.040;2023-01-28T13:06:54;13.73;;;9.73;;
14665;SDS011;7420;53.574;10.040;2023-01-28T13:09:21;11.63;;;9.30;;
14665;SDS011;7420;53.574;10.040;2023-01-28T13:11:50;13.55;;;9.85;;
14665;SDS011;7420;53.574;10.040;2023-01-28T13:14:19;12.90;;;9.02;;
14665;SDS011;7420;53.574;10.040;2023-01-28T13:16:52;17.77;;;10.73;;
14665;SDS011;7420;53.574;10.040;2023-01-28T13:21:44;14.57;;;10.38;;
14665;SDS011;7420;53.574;10.040;2023-01-28T13:26:43;14.50;;;9.98;;
14665;SDS011;7420;53.574;10.040;2023-01-28T13:31:43;14.73;;;10.50;;
14665;SDS011;7420;53.574;10.040;2023-01-28T13:36:57;12.82;;;10.70;;
14665;SDS011;7420;53.574;10.040;2023-01-28T13:39:25;13.90;;;10.98;;
14665;SDS011;7420;53.574;10.040;2023-01-28T13:42:06;15.10;;;11.27;;
14665;SDS011;7420;53.574;10.040;2023-01-28T13:44:34;13.50;;;10.77;;
14665;SDS011;7420;53.574;10.040;2023-01-28T13:49:31;14.27;;;11.55;;
14665;SDS011;7420;53.574;10.040;2023-01-28T13:55:37;16.38;;;12.05;;
14665;SDS011;7420;53.574;10.040;2023-01-28T13:57:42;15.57;;;11.13;;
14665;SDS011;7420;53.574;10.040;2023-01-28T14:03:19;17.00;;;10.90;;
14665;SDS011;7420;53.574;10.040;2023-01-28T14:09:01;18.08;;;11.77;;
14665;SDS011;7420;53.574;10.040;2023-01-28T14:19:31;15.77;;;10.65;;
14665;SDS011;7420;53.574;10.040;2023-01-28T14:22:04;17.70;;;11.38;;
14665;SDS011;7420;53.574;10.040;2023-01-28T14:24:30;21.85;;;11.82;;
14665;SDS011;7420;53.574;10.040;2023-01-28T14:32:25;23.75;;;12.88;;
14665;SDS011;7420;53.574;10.040;2023-01-28T14:34:52;24.77;;;11.40;;
14665;SDS011;7420;53.574;10.040;2023-01-28T14:37:20;21.58;;;12.43;;
14665;SDS011;7420;53.574;10.040;2023-01-28T14:39:59;20.38;;;11.75;;
14665;SDS011;7420;53.574;10.040;2023-01-28T14:42:28;21.27;;;13.20;;
14665;SDS011;7420;53.574;10.040;2023-01-28T14:53:24;19.92;;;13.13;;
14665;SDS011;7420;53.574;10.040;2023-01-28T14:56:11;21.50;;;12.75;;
14665;SDS011;7420;53.574;10.040;2023-01-28T14:58:48;17.98;;;11.80;;
14665;SDS011;7420;53.574;10.040;2023-01-28T15:01:23;23.67;;;12.70;;
14665;SDS011;7420;53.574;10.040;2023-01-28T15:03:53;22.45;;;13.27;;
14665;SDS011;7420;53.574;10.040;2023-01-28T15:06:22;19.48;;;10.90;;
14665;SDS011;7420;53.574;10.040;2023-01-28T15:08:52;20.38;;;12.65;;
14665;SDS011;7420;53.574;10.040;2023-01-28T15:11:19;18.85;;;12.48;;
14665;SDS011;7420;53.574;10.040;2023-01-28T15:13:48;19.40;;;11.55;;
14665;SDS011;7420;53.574;10.040;2023-01-28T15:16:20;16.48;;;10.98;;
14665;SDS011;7420;53.574;10.040;2023-01-28T15:18:48;19.23;;;12.32;;
14665;SDS011;7420;53.574;10.040;2023-01-28T15:21:24;19.33;;;11.43;;
14665;SDS011;7420;53.574;10.040;2023-01-28T15:23:51;21.00;;;10.93;;
14665;SDS011;7420;53.574;10.040;2023-01-28T15:26:21;21.92;;;12.20;;
14665;SDS011;7420;53.574;10.040;2023-01-28T15:28:49;16.63;;;11.25;;
14665;SDS011;7420;53.574;10.040;2023-01-28T15:31:26;22.02;;;11.30;;
14665;SDS011;7420;53.574;10.040;2023-01-28T15:36:27;20.88;;;12.18;;
14665;SDS011;7420;53.574;10.040;2023-01-28T15:38:53;19.63;;;11.77;;
14665;SDS011;7420;53.574;10.040;2023-01-28T15:41:20;21.10;;;12.20;;
14665;SDS011;7420;53.574;10.040;2023-01-28T15:43:48;19.58;;;11.30;;
14665;SDS011;7420;53.574;10.040;2023-01-28T15:46:16;19.52;;;11.70;;
14665;SDS011;7420;53.574;10.040;2023-01-28T15:48:43;20.92;;;13.48;;
14665;SDS011;7420;53.574;10.040;2023-01-28T15:51:29;20.77;;;11.77;;
14665;SDS011;7420;53.574;10.040;2023-01-28T15:54:01;19.95;;;11.23;;
14665;SDS011;7420;53.574;10.040;2023-01-28T15:56:29;19.33;;;11.35;;
14665;SDS011;7420;53.574;10.040;2023-01-28T15:58:55;17.67;;;11.25;;
14665;SDS011;7420;53.574;10.040;2023-01-28T16:01:41;18.67;;;11.63;;
14665;SDS011;7420;53.574;10.040;2023-01-28T16:04:18;16.55;;;10.77;;
14665;SDS011;7420;53.574;10.040;2023-01-28T16:06:53;18.60;;;11.27;;
14665;SDS011;7420;53.574;10.040;2023-01-28T16:09:21;19.77;;;10.93;;
14665;SDS011;7420;53.574;10.040;2023-01-28T16:11:48;19.27;;;11.23;;
14665;SDS011;7420;53.574;10.040;2023-01-28T16:14:20;22.20;;;12.05;;
14665;SDS011;7420;53.574;10.040;2023-01-28T16:16:49;20.25;;;10.95;;
14665;SDS011;7420;53.574;10.040;2023-01-28T16:19:20;18.70;;;11.32;;
14665;SDS011;7420;53.574;10.040;2023-01-28T16:21:54;20.00;;;11.13;;
14665;SDS011;7420;53.574;10.040;2023-01-28T16:24:30;21.02;;;12.38;;
14665;SDS011;7420;53.574;10.040;2023-01-28T16:29:25;22.58;;;12.20;;
14665;SDS011;7420;53.574;10.040;2023-01-28T16:31:51;20.25;;;11.52;;
14665;SDS011;7420;53.574;10.040;2023-01-28T16:34:17;20.00;;;11.40;;
14665;SDS011;7420;53.574;10.040;2023-01-28T16:36:43;20.00;;;11.23;;
14665;SDS011;7420;53.574;10.040;2023-01-28T16:39:08;20.08;;;10.43;;
14665;SDS011;7420;53.574;10.040;2023-01-28T16:41:37;22.83;;;11.45;;
14665;SDS011;7420;53.574;10.040;2023-01-28T16:44:04;22.23;;;12.27;;
14665;SDS011;7420;53.574;10.040;2023-01-28T16:46:30;20.35;;;11.93;;
14665;SDS011;7420;53.574;10.040;2023-01-28T16:48:57;17.75;;;10.75;;
14665;SDS011;7420;53.574;10.040;2023-01-28T16:51:22;22.50;;;12.02;;
14665;SDS011;7420;53.574;10.040;2023-01-28T16:53:48;20.45;;;11.35;;
14665;SDS011;7420;53.574;10.040;2023-01-28T16:56:15;23.00;;;12.32;;
14665;SDS011;7420;53.574;10.040;2023-01-28T16:58:42;21.17;;;11.82;;
14665;SDS011;7420;53.574;10.040;2023-01-28T17:01:08;17.27;;;11.20;;
14665;SDS011;7420;53.574;10.040;2023-01-28T17:03:35;25.88;;;12.90;;
14665;SDS011;7420;53.574;10.040;2023-01-28T17:06:00;22.55;;;11.90;;
14665;SDS011;7420;53.574;10.040;2023-01-28T17:08:26;25.98;;;12.68;;
14665;SDS011;7420;53.574;10.040;2023-01-28T17:10:54;22.20;;;13.02;;
14665;SDS011;7420;53.574;10.040;2023-01-28T17:13:20;22.27;;;12.13;;
14665;SDS011;7420;53.574;10.040;2023-01-28T17:15:45;23.25;;;12.48;;
14665;SDS011;7420;53.574;10.040;2023-01-28T17:18:11;22.65;;;13.02;;
14665;SDS011;7420;53.574;10.040;2023-01-28T17:20:37;21.83;;;12.05;;